Lyttelton, New Zealand
Current Conditions -  °F | °C
As of 9:00 AM on Sunday 26 Oct 2014 (Local Time) from NZCH Reporting Station
Clear Clear  
Wind Chill: 55°   Ceiling: Unl
Heat Index: 55°   Visibility: 6mi
Dew Point: 41°   Wind: 3mph
Humidity: 58%   Direction: 50°NE
Pressure: 29.74"   Gusts: NA
Location:  43.6°S, 172.72°E
Report Text: NZCH 252100Z AUTO 05003KT 9999 NCD 13/05 Q1007 NOSIG
Loading
Personal Weather Stations






























Interactive Weather Map
Tropical Storm Tracking
New forecast layout! Learn more

10-Day Weather Forecast

Advertisements
Track Severe Weather on mobile